createdAt,value
2023-04-08T00:01:36.180Z,7.00
2023-04-08T00:06:28.304Z,7.00
2023-04-08T00:11:20.428Z,7.00
2023-04-08T00:16:12.406Z,7.00
2023-04-08T00:21:04.745Z,7.00
2023-04-08T00:25:56.760Z,7.00
2023-04-08T00:30:48.755Z,6.90
2023-04-08T00:35:41.189Z,6.90
2023-04-08T00:40:33.339Z,7.00
2023-04-08T00:45:26.030Z,7.10
2023-04-08T00:50:18.630Z,7.10
2023-04-08T00:55:10.840Z,7.10
2023-04-08T01:00:05.971Z,7.10
2023-04-08T01:11:35.176Z,7.10
2023-04-08T01:16:27.802Z,7.00
2023-04-08T01:21:22.268Z,7.10
2023-04-08T01:26:22.754Z,7.10
2023-04-08T01:31:18.295Z,7.10
2023-04-08T01:36:11.317Z,7.00
2023-04-08T01:41:05.731Z,7.00
2023-04-08T01:45:58.838Z,7.00
2023-04-08T01:50:52.058Z,7.10
2023-04-08T01:55:46.474Z,7.10
2023-04-08T02:00:42.828Z,7.10
2023-04-08T02:05:35.027Z,7.10
2023-04-08T02:10:28.350Z,7.10
2023-04-08T02:15:21.969Z,7.10
2023-04-08T02:20:19.126Z,7.10
2023-04-08T02:25:16.490Z,7.20
2023-04-08T02:30:10.971Z,7.20
2023-04-08T02:35:06.932Z,7.20
2023-04-08T02:39:59.293Z,7.20
2023-04-08T02:44:52.040Z,7.20
2023-04-08T02:49:44.173Z,7.20
2023-04-08T02:54:36.253Z,7.20
2023-04-08T02:59:28.233Z,7.20
2023-04-08T03:04:20.370Z,7.20
2023-04-08T03:09:12.340Z,7.30
2023-04-08T03:14:04.371Z,7.30
2023-04-08T03:18:57.737Z,7.30
2023-04-08T03:23:49.740Z,7.30
2023-04-08T03:28:41.761Z,7.30
2023-04-08T03:33:33.890Z,7.30
2023-04-08T03:38:26.010Z,7.30
2023-04-08T03:43:19.667Z,7.30
2023-04-08T03:48:12.801Z,7.30
2023-04-08T03:53:04.924Z,7.30
2023-04-08T03:57:56.930Z,7.30
2023-04-08T04:02:49.003Z,7.30
2023-04-08T04:07:41.016Z,7.30
2023-04-08T04:12:34.209Z,7.30
2023-04-08T04:17:26.326Z,7.20
2023-04-08T04:22:18.424Z,7.30
2023-04-08T04:27:10.411Z,7.30
2023-04-08T04:32:02.350Z,7.20
2023-04-08T04:36:54.394Z,7.30
2023-04-08T04:41:47.500Z,7.20
2023-04-08T04:46:39.612Z,7.30
2023-04-08T04:51:33.271Z,7.30
2023-04-08T04:56:26.656Z,7.20
2023-04-08T05:01:18.672Z,7.20
2023-04-08T05:06:10.976Z,7.20
2023-04-08T05:11:02.974Z,7.20
2023-04-08T05:15:55.271Z,7.20
2023-04-08T05:20:47.435Z,7.30
2023-04-08T05:25:39.386Z,7.30
2023-04-08T05:30:31.544Z,7.30
2023-04-08T05:35:24.806Z,7.30
2023-04-08T05:40:18.035Z,7.50
2023-04-08T05:45:10.607Z,7.60
2023-04-08T05:50:02.652Z,7.60
2023-04-08T05:54:54.657Z,7.60
2023-04-08T05:59:46.796Z,7.70
2023-04-08T06:04:38.936Z,7.80
2023-04-08T06:09:31.053Z,7.90
2023-04-08T06:14:23.006Z,8.00
2023-04-08T06:19:15.613Z,8.10
2023-04-08T06:24:07.714Z,8.10
2023-04-08T06:28:59.935Z,8.10
2023-04-08T06:33:52.495Z,8.20
2023-04-08T06:38:44.424Z,8.60
2023-04-08T06:43:38.052Z,8.90
2023-04-08T06:48:30.851Z,8.90
2023-04-08T06:53:24.962Z,8.70
2023-04-08T06:58:17.375Z,8.60
2023-04-08T07:03:09.730Z,8.60
2023-04-08T07:08:01.773Z,8.60
2023-04-08T07:12:54.648Z,8.70
2023-04-08T07:17:47.649Z,8.80
2023-04-08T07:22:40.649Z,9.00
2023-04-08T07:27:34.320Z,9.20
2023-04-08T07:32:27.569Z,9.60
2023-04-08T07:37:19.678Z,10.10
2023-04-08T07:42:12.090Z,10.40
2023-04-08T07:47:04.330Z,10.50
2023-04-08T07:51:57.577Z,10.10
2023-04-08T07:56:49.606Z,9.90
2023-04-08T08:01:41.817Z,9.70
2023-04-08T08:06:33.870Z,9.90
2023-04-08T08:11:28.015Z,10.30
2023-04-08T08:16:20.446Z,10.50
2023-04-08T08:21:12.689Z,11.10
2023-04-08T08:26:12.252Z,11.90
2023-04-08T08:31:06.348Z,12.00
2023-04-08T08:35:58.654Z,11.80
2023-04-08T08:40:57.908Z,11.90
2023-04-08T08:45:50.092Z,12.00
2023-04-08T08:50:42.128Z,11.60
2023-04-08T08:56:02.168Z,11.50
2023-04-08T09:00:47.432Z,11.30
2023-04-08T09:05:59.499Z,11.30
2023-04-08T09:10:51.553Z,10.60
2023-04-08T09:16:08.474Z,10.60
2023-04-08T09:21:02.204Z,11.00
2023-04-08T09:26:07.027Z,11.70
2023-04-08T09:30:58.961Z,11.80
2023-04-08T09:35:52.239Z,11.40
2023-04-08T09:40:45.424Z,11.30
2023-04-08T09:45:41.326Z,11.30
2023-04-08T09:50:40.656Z,11.40
2023-04-08T09:55:36.498Z,11.50
2023-04-08T10:00:34.579Z,11.60
2023-04-08T10:05:27.673Z,11.50
2023-04-08T10:10:20.836Z,11.40
2023-04-08T10:15:29.475Z,11.50
2023-04-08T10:20:36.748Z,11.40
2023-04-08T10:25:34.593Z,11.80
2023-04-08T10:30:31.590Z,12.30
2023-04-08T10:35:31.421Z,12.50
2023-04-08T10:40:23.526Z,12.60
2023-04-08T10:45:18.437Z,12.00
2023-04-08T10:50:16.650Z,11.80
2023-04-08T10:55:09.209Z,12.00
2023-04-08T11:00:01.284Z,11.80
2023-04-08T11:04:54.557Z,11.50
2023-04-08T11:09:46.539Z,11.40
2023-04-08T11:14:41.285Z,11.20
2023-04-08T11:19:36.078Z,11.10
2023-04-08T11:24:28.688Z,10.80
2023-04-08T11:29:21.228Z,10.50
2023-04-08T11:34:21.885Z,10.20
2023-04-08T11:39:13.842Z,10.30
2023-04-08T11:44:07.255Z,10.70
2023-04-08T11:49:08.077Z,11.10
2023-04-08T11:54:02.255Z,11.70
2023-04-08T11:58:54.278Z,11.60
2023-04-08T12:04:00.851Z,11.50
2023-04-08T12:08:54.184Z,11.50
2023-04-08T12:13:46.151Z,11.20
2023-04-08T12:18:38.510Z,10.90
2023-04-08T12:23:30.441Z,10.60
2023-04-08T12:28:22.522Z,10.80
2023-04-08T12:33:14.470Z,11.20
2023-04-08T12:38:06.938Z,11.50
2023-04-08T12:42:58.855Z,12.10
2023-04-08T12:47:51.429Z,11.70
2023-04-08T12:52:43.433Z,11.40
2023-04-08T12:57:35.465Z,11.20
2023-04-08T13:02:27.701Z,10.50
2023-04-08T13:07:20.095Z,10.40
2023-04-08T13:12:12.318Z,11.20
2023-04-08T13:17:04.978Z,11.60
2023-04-08T13:21:57.216Z,11.80
2023-04-08T13:26:49.612Z,11.90
2023-04-08T13:31:41.772Z,12.00
2023-04-08T13:36:33.833Z,11.80
2023-04-08T13:41:26.210Z,11.60
2023-04-08T13:46:18.506Z,11.90
2023-04-08T13:51:10.516Z,11.80
2023-04-08T13:56:03.751Z,11.60
2023-04-08T14:00:56.486Z,11.20
2023-04-08T14:05:49.141Z,11.00
2023-04-08T14:10:43.103Z,10.70
2023-04-08T14:15:35.137Z,10.20
2023-04-08T14:20:27.191Z,10.10
2023-04-08T14:25:19.140Z,10.40
2023-04-08T14:30:11.356Z,10.60
2023-04-08T14:35:03.358Z,10.30
2023-04-08T14:39:55.382Z,10.00
2023-04-08T14:44:47.278Z,9.70
2023-04-08T14:49:39.257Z,9.50
2023-04-08T14:54:31.304Z,9.40
2023-04-08T14:59:23.265Z,9.50
2023-04-08T15:04:15.317Z,9.50
2023-04-08T15:09:07.484Z,9.60
2023-04-08T15:13:59.477Z,9.60
2023-04-08T15:18:51.563Z,9.70
2023-04-08T15:23:43.716Z,9.80
2023-04-08T15:28:37.974Z,10.00
2023-04-08T15:33:31.556Z,10.00
2023-04-08T15:38:23.670Z,9.90
2023-04-08T15:43:15.778Z,10.00
2023-04-08T15:48:07.822Z,9.90
2023-04-08T15:52:59.861Z,9.70
2023-04-08T15:57:54.098Z,9.50
2023-04-08T16:02:46.686Z,9.40
2023-04-08T16:07:39.007Z,9.30
2023-04-08T16:12:30.980Z,9.30
2023-04-08T16:17:23.129Z,9.10
2023-04-08T16:22:15.355Z,9.10
2023-04-08T16:27:07.385Z,8.90
2023-04-08T16:31:59.426Z,8.90
2023-04-08T16:36:51.970Z,8.90
2023-04-08T16:41:44.814Z,8.80
2023-04-08T16:46:36.891Z,8.80
2023-04-08T16:51:29.212Z,8.70
2023-04-08T16:56:22.115Z,8.60
2023-04-08T17:01:14.567Z,8.60
2023-04-08T17:06:17.327Z,8.60
2023-04-08T17:11:16.105Z,8.60
2023-04-08T17:16:15.970Z,8.60
2023-04-08T17:21:08.797Z,8.50
2023-04-08T17:26:05.311Z,8.60
2023-04-08T17:30:57.506Z,8.50
2023-04-08T17:35:49.728Z,8.50
2023-04-08T17:40:41.812Z,8.50
2023-04-08T17:45:33.866Z,8.30
2023-04-08T17:50:25.994Z,8.10
2023-04-08T17:55:18.075Z,7.80
2023-04-08T18:00:10.627Z,7.60
2023-04-08T18:05:06.581Z,7.50
2023-04-08T18:09:58.552Z,7.40
2023-04-08T18:14:50.637Z,7.50
2023-04-08T18:19:42.634Z,7.50
2023-04-08T18:24:34.628Z,7.60
2023-04-08T18:29:26.636Z,7.60
2023-04-08T18:34:20.781Z,7.50
2023-04-08T18:39:12.706Z,7.50
2023-04-08T18:44:04.759Z,7.40
2023-04-08T18:48:56.861Z,7.50
2023-04-08T18:53:49.958Z,7.50
2023-04-08T18:58:43.024Z,7.50
2023-04-08T19:03:38.630Z,7.50
2023-04-08T19:08:30.640Z,7.50
2023-04-08T19:13:23.883Z,7.50
2023-04-08T19:18:16.185Z,7.40
2023-04-08T19:23:08.210Z,7.30
2023-04-08T19:28:00.269Z,7.10
2023-04-08T19:32:52.345Z,6.70
2023-04-08T19:37:44.322Z,6.40
2023-04-08T19:42:36.604Z,6.20
2023-04-08T19:47:29.458Z,6.00
2023-04-08T19:52:22.062Z,5.80
2023-04-08T19:57:14.059Z,5.60
2023-04-08T20:02:06.685Z,5.50
2023-04-08T20:07:01.200Z,5.40
2023-04-08T20:11:53.186Z,5.20
2023-04-08T20:16:45.347Z,5.10
2023-04-08T20:21:37.855Z,5.00
2023-04-08T20:26:29.924Z,4.90
2023-04-08T20:31:22.518Z,4.90
2023-04-08T20:36:14.673Z,4.80
2023-04-08T20:41:07.189Z,4.70
2023-04-08T20:45:59.525Z,4.50
2023-04-08T20:50:51.878Z,4.50
2023-04-08T20:55:43.871Z,4.50
2023-04-08T21:00:36.016Z,4.50
2023-04-08T21:05:28.012Z,4.40
2023-04-08T21:10:20.083Z,4.30
2023-04-08T21:15:12.074Z,4.30
2023-04-08T21:20:06.590Z,4.30
2023-04-08T21:24:58.620Z,4.60
2023-04-08T21:29:53.693Z,4.60
2023-04-08T21:34:48.836Z,4.50
2023-04-08T21:39:40.835Z,4.40
2023-04-08T21:44:33.336Z,4.10
2023-04-08T21:49:25.379Z,3.90
2023-04-08T21:54:17.479Z,3.70
2023-04-08T21:59:09.456Z,3.60
2023-04-08T22:04:01.612Z,3.40
2023-04-08T22:08:53.948Z,3.30
2023-04-08T22:13:45.992Z,3.30
2023-04-08T22:18:37.974Z,3.40
2023-04-08T22:23:30.022Z,3.40
2023-04-08T22:28:22.272Z,3.10
2023-04-08T22:33:14.305Z,2.90
2023-04-08T22:38:06.462Z,2.90
2023-04-08T22:42:58.491Z,2.80
2023-04-08T22:47:50.566Z,2.80
2023-04-08T22:52:42.643Z,2.80
2023-04-08T22:57:34.961Z,2.70
2023-04-08T23:02:26.967Z,2.60
2023-04-08T23:07:21.838Z,2.60
2023-04-08T23:12:13.841Z,2.60
2023-04-08T23:17:06.236Z,2.60
2023-04-08T23:21:58.222Z,2.50
2023-04-08T23:26:50.194Z,2.30
2023-04-08T23:31:42.237Z,2.30
2023-04-08T23:36:34.270Z,2.20
2023-04-08T23:41:26.490Z,2.10
2023-04-08T23:46:18.502Z,2.10
2023-04-08T23:51:12.008Z,2.00
2023-04-08T23:56:05.892Z,1.80
